createdAt,value
2023-02-19T00:00:59.753Z,58.45
2023-02-19T00:04:06.180Z,58.00
2023-02-19T00:07:10.768Z,58.18
2023-02-19T00:10:13.758Z,57.98
2023-02-19T00:13:16.857Z,58.39
2023-02-19T00:16:25.056Z,58.13
2023-02-19T00:19:33.031Z,58.39
2023-02-19T00:22:38.928Z,58.38
2023-02-19T00:25:45.383Z,58.11
2023-02-19T00:28:55.746Z,58.22
2023-02-19T00:31:58.951Z,58.43
2023-02-19T00:35:05.026Z,58.43
2023-02-19T00:38:08.231Z,58.91
2023-02-19T00:41:21.777Z,58.37
2023-02-19T00:44:25.186Z,58.81
2023-02-19T00:47:27.583Z,58.31
2023-02-19T00:50:30.925Z,57.71
2023-02-19T00:53:33.490Z,58.17
2023-02-19T00:56:36.298Z,58.26
2023-02-19T00:59:39.273Z,58.40
2023-02-19T01:02:42.670Z,58.03
2023-02-19T01:05:45.224Z,58.20
2023-02-19T01:08:47.834Z,58.31
2023-02-19T01:11:52.344Z,58.78
2023-02-19T01:14:55.537Z,57.87
2023-02-19T01:17:58.356Z,58.23
2023-02-19T01:21:14.880Z,58.09
2023-02-19T01:24:17.944Z,58.43
2023-02-19T01:27:20.612Z,57.99
2023-02-19T01:30:26.015Z,57.94
2023-02-19T01:33:34.050Z,57.13
2023-02-19T01:36:39.317Z,56.89
2023-02-19T01:39:42.705Z,57.73
2023-02-19T01:42:45.605Z,58.35
2023-02-19T01:45:57.193Z,58.36
2023-02-19T01:49:21.492Z,59.12
2023-02-19T01:52:32.229Z,59.42
2023-02-19T01:55:35.723Z,59.90
2023-02-19T01:58:39.421Z,59.98
2023-02-19T02:01:42.687Z,60.63
2023-02-19T02:08:34.636Z,60.97
2023-02-19T02:11:58.489Z,61.04
2023-02-19T02:15:01.890Z,60.79
2023-02-19T02:18:22.811Z,60.74
2023-02-19T02:22:04.597Z,61.01
2023-02-19T02:25:16.477Z,61.06
2023-02-19T02:28:49.802Z,61.93
2023-02-19T02:32:32.010Z,62.06
2023-02-19T02:35:43.181Z,60.81
2023-02-19T02:38:47.578Z,60.67
2023-02-19T02:42:15.145Z,60.68
2023-02-19T02:45:35.427Z,60.60
2023-02-19T02:48:46.862Z,61.47
2023-02-19T02:51:54.989Z,61.48
2023-02-19T02:55:03.938Z,60.71
2023-02-19T02:58:09.158Z,60.61
2023-02-19T03:01:38.848Z,60.21
2023-02-19T03:05:11.519Z,60.82
2023-02-19T03:08:48.527Z,61.59
2023-02-19T03:12:13.319Z,61.46
2023-02-19T03:15:41.240Z,61.36
2023-02-19T03:19:09.389Z,62.04
2023-02-19T03:22:22.176Z,62.00
2023-02-19T03:25:57.284Z,62.38
2023-02-19T03:29:23.669Z,62.18
2023-02-19T03:32:32.386Z,62.47
2023-02-19T03:35:47.755Z,62.26
2023-02-19T03:39:03.776Z,62.06
2023-02-19T03:42:26.543Z,62.94
2023-02-19T03:46:07.869Z,62.85
2023-02-19T03:49:30.910Z,62.33
2023-02-19T03:53:21.788Z,61.96
2023-02-19T03:57:00.986Z,62.49
2023-02-19T04:00:11.283Z,62.65
2023-02-19T04:03:39.377Z,62.49
2023-02-19T04:06:45.265Z,62.57
2023-02-19T04:09:58.450Z,61.46
2023-02-19T04:13:12.441Z,61.72
2023-02-19T04:16:28.495Z,61.23
2023-02-19T04:19:40.096Z,61.69
2023-02-19T04:22:46.633Z,61.49
2023-02-19T04:25:53.686Z,61.89
2023-02-19T04:28:57.143Z,61.97
2023-02-19T04:32:04.897Z,61.88
2023-02-19T04:35:16.236Z,62.07
2023-02-19T04:38:19.406Z,61.98
2023-02-19T04:41:25.659Z,61.84
2023-02-19T04:44:28.829Z,61.93
2023-02-19T04:47:34.784Z,62.25
2023-02-19T04:50:46.639Z,62.59
2023-02-19T04:53:53.406Z,62.12
2023-02-19T04:56:58.014Z,61.72
2023-02-19T05:00:00.927Z,61.97
2023-02-19T05:03:03.852Z,61.91
2023-02-19T05:06:09.282Z,61.62
2023-02-19T05:09:11.966Z,62.44
2023-02-19T05:12:14.620Z,62.73
2023-02-19T05:15:18.418Z,64.28
2023-02-19T05:18:20.752Z,66.20
2023-02-19T05:21:24.138Z,66.36
2023-02-19T05:24:28.151Z,66.83
2023-02-19T05:27:31.733Z,66.70
2023-02-19T05:30:36.063Z,67.39
2023-02-19T05:33:39.521Z,67.19
2023-02-19T05:36:42.173Z,66.89
2023-02-19T05:39:45.336Z,66.36
2023-02-19T05:42:48.612Z,65.83
2023-02-19T05:46:00.206Z,65.95
2023-02-19T05:49:03.591Z,67.37
2023-02-19T05:52:06.438Z,68.29
2023-02-19T05:55:12.999Z,68.36
2023-02-19T05:58:18.040Z,68.75
2023-02-19T06:01:28.596Z,69.72
2023-02-19T06:04:31.358Z,69.52
2023-02-19T06:07:35.447Z,70.72
2023-02-19T06:10:41.597Z,70.40
2023-02-19T06:13:45.562Z,72.05
2023-02-19T06:16:48.152Z,72.15
2023-02-19T06:19:50.897Z,72.09
2023-02-19T06:22:53.772Z,72.66
2023-02-19T06:26:09.676Z,71.85
2023-02-19T06:29:12.294Z,72.42
2023-02-19T06:32:17.086Z,72.27
2023-02-19T06:35:19.830Z,73.90
2023-02-19T06:38:22.780Z,73.87
2023-02-19T06:41:26.368Z,73.22
2023-02-19T06:44:29.221Z,73.63
2023-02-19T06:47:33.017Z,74.08
2023-02-19T06:50:35.488Z,74.47
2023-02-19T06:53:38.128Z,74.51
2023-02-19T06:56:42.149Z,75.06
2023-02-19T06:59:45.111Z,75.03
2023-02-19T07:02:47.459Z,74.70
2023-02-19T07:05:50.040Z,75.00
2023-02-19T07:08:53.312Z,74.84
2023-02-19T07:11:55.903Z,73.64
2023-02-19T07:14:59.972Z,74.17
2023-02-19T07:18:02.933Z,74.01
2023-02-19T07:21:12.542Z,74.22
2023-02-19T07:24:15.418Z,74.69
2023-02-19T07:27:18.030Z,74.09
2023-02-19T07:30:26.155Z,74.84
2023-02-19T07:33:32.021Z,74.27
2023-02-19T07:36:34.858Z,74.35
2023-02-19T07:39:37.666Z,73.68
2023-02-19T07:42:40.771Z,73.58
2023-02-19T07:45:45.928Z,73.54
2023-02-19T07:48:52.117Z,72.61
2023-02-19T07:51:56.724Z,73.22
2023-02-19T07:55:05.004Z,75.17
2023-02-19T07:58:07.988Z,74.00
2023-02-19T08:01:40.850Z,72.46
2023-02-19T08:04:43.702Z,73.02
2023-02-19T08:07:46.264Z,73.03
2023-02-19T08:11:08.851Z,74.07
2023-02-19T08:14:12.057Z,74.08
2023-02-19T08:17:15.304Z,75.18
2023-02-19T08:20:21.593Z,74.74
2023-02-19T08:23:28.079Z,75.65
2023-02-19T08:26:31.730Z,78.29
2023-02-19T08:29:35.422Z,78.76
2023-02-19T08:32:38.927Z,79.50
2023-02-19T08:35:47.213Z,79.66
2023-02-19T08:38:53.545Z,79.61
2023-02-19T08:42:02.894Z,81.10
2023-02-19T08:45:10.557Z,80.59
2023-02-19T08:48:14.138Z,79.91
2023-02-19T08:51:17.393Z,81.71
2023-02-19T08:54:24.180Z,81.37
2023-02-19T08:57:33.197Z,81.64
2023-02-19T09:00:42.202Z,82.02
2023-02-19T09:03:45.476Z,82.46
2023-02-19T09:06:51.312Z,83.45
2023-02-19T09:09:55.627Z,83.97
2023-02-19T09:13:01.249Z,84.32
2023-02-19T09:16:06.336Z,85.23
2023-02-19T09:19:09.736Z,85.27
2023-02-19T09:22:12.516Z,85.60
2023-02-19T09:25:15.908Z,85.10
2023-02-19T09:28:23.792Z,85.67
2023-02-19T09:31:27.374Z,85.59
2023-02-19T09:34:30.361Z,85.58
2023-02-19T09:37:35.773Z,85.03
2023-02-19T09:40:42.442Z,84.41
2023-02-19T09:43:45.640Z,84.41
2023-02-19T09:46:52.166Z,84.82
2023-02-19T09:50:04.243Z,83.51
2023-02-19T09:53:17.956Z,82.46
2023-02-19T09:56:20.830Z,81.17
2023-02-19T09:59:30.872Z,80.63
2023-02-19T10:02:33.888Z,79.85
2023-02-19T10:05:40.205Z,80.31
2023-02-19T10:08:49.252Z,80.44
2023-02-19T10:11:54.109Z,79.99
2023-02-19T10:15:04.777Z,79.58
2023-02-19T10:18:10.084Z,78.38
2023-02-19T10:21:25.812Z,78.50
2023-02-19T10:24:30.273Z,77.62
2023-02-19T10:27:33.076Z,77.24
2023-02-19T10:30:37.943Z,76.41
2023-02-19T10:33:52.586Z,76.22
2023-02-19T10:36:55.299Z,75.86
2023-02-19T10:39:57.577Z,75.13
2023-02-19T10:43:05.417Z,73.49
2023-02-19T10:46:15.393Z,72.82
2023-02-19T10:49:30.586Z,72.23
2023-02-19T10:52:36.491Z,72.22
2023-02-19T10:55:41.179Z,71.26
2023-02-19T10:58:45.260Z,71.18
2023-02-19T11:01:58.947Z,71.04
2023-02-19T11:05:15.473Z,69.63
2023-02-19T11:08:28.376Z,68.11
2023-02-19T11:11:40.448Z,67.12
2023-02-19T11:14:45.721Z,65.00
2023-02-19T11:18:02.287Z,62.00
2023-02-19T11:21:07.582Z,61.29
2023-02-19T11:24:31.124Z,59.97
2023-02-19T11:27:34.566Z,59.67
2023-02-19T11:30:39.699Z,59.35
2023-02-19T11:34:05.288Z,58.85
2023-02-19T11:37:28.480Z,58.82
2023-02-19T11:40:46.088Z,58.44
2023-02-19T11:44:14.817Z,57.84
2023-02-19T11:47:29.906Z,57.77
2023-02-19T11:50:51.867Z,57.23
2023-02-19T11:54:24.502Z,57.73
2023-02-19T11:57:41.099Z,57.08
2023-02-19T12:01:05.171Z,56.40
2023-02-19T12:04:32.149Z,55.84
2023-02-19T12:08:10.461Z,55.90
2023-02-19T12:11:54.021Z,55.73
2023-02-19T12:15:02.860Z,54.64
2023-02-19T12:18:38.344Z,54.48
2023-02-19T12:22:18.729Z,54.12
2023-02-19T12:25:33.438Z,54.65
2023-02-19T12:29:01.082Z,53.76
2023-02-19T12:32:39.419Z,53.02
2023-02-19T12:36:16.777Z,53.13
2023-02-19T12:39:38.069Z,52.78
2023-02-19T12:43:02.883Z,52.80
2023-02-19T12:46:21.784Z,53.16
2023-02-19T12:49:31.604Z,53.22
2023-02-19T12:52:46.879Z,52.21
2023-02-19T12:55:53.952Z,57.62
2023-02-19T12:59:11.408Z,65.18
2023-02-19T13:02:19.139Z,70.42
2023-02-19T13:05:38.259Z,72.41
2023-02-19T13:09:03.427Z,71.60
2023-02-19T13:12:26.070Z,73.93
2023-02-19T13:15:44.189Z,74.12
2023-02-19T13:18:58.130Z,71.40
2023-02-19T13:23:05.108Z,69.69
2023-02-19T13:26:19.615Z,70.45
2023-02-19T13:29:57.659Z,70.74
2023-02-19T13:33:12.151Z,71.50
2023-02-19T13:36:26.529Z,70.33
2023-02-19T13:39:31.124Z,69.96
2023-02-19T13:42:39.020Z,69.70
2023-02-19T13:45:44.856Z,68.88
2023-02-19T13:48:47.428Z,69.21
2023-02-19T13:51:57.015Z,67.93
2023-02-19T13:55:40.189Z,63.76
2023-02-19T13:58:56.914Z,65.39
2023-02-19T14:02:01.344Z,71.05
2023-02-19T14:05:10.747Z,71.65
2023-02-19T14:08:13.237Z,73.69
2023-02-19T14:11:48.521Z,73.07
2023-02-19T14:14:53.561Z,74.81
2023-02-19T14:17:57.185Z,73.92
2023-02-19T14:21:14.643Z,73.96
2023-02-19T14:24:18.287Z,73.08
2023-02-19T14:27:23.134Z,73.34
2023-02-19T14:30:28.596Z,73.70
2023-02-19T14:33:38.147Z,72.33
2023-02-19T14:36:50.555Z,71.96
2023-02-19T14:39:57.232Z,68.79
2023-02-19T14:43:01.250Z,69.81
2023-02-19T14:46:14.912Z,67.31
2023-02-19T14:49:33.934Z,67.74
2023-02-19T14:52:41.629Z,68.65
2023-02-19T14:55:48.816Z,69.52
2023-02-19T14:59:22.554Z,70.08
2023-02-19T15:02:27.782Z,70.80
2023-02-19T15:05:33.448Z,71.21
2023-02-19T15:08:48.605Z,71.33
2023-02-19T15:11:51.950Z,70.88
2023-02-19T15:14:59.995Z,70.14
2023-02-19T15:18:04.646Z,69.79
2023-02-19T15:21:08.751Z,70.58
2023-02-19T15:24:14.924Z,69.60
2023-02-19T15:27:24.641Z,69.41
2023-02-19T15:30:31.517Z,68.51
2023-02-19T15:33:35.393Z,70.30
2023-02-19T15:36:45.452Z,69.46
2023-02-19T15:39:56.167Z,69.50
2023-02-19T15:43:02.774Z,68.84
2023-02-19T15:46:15.989Z,68.58
2023-02-19T15:49:33.946Z,68.35
2023-02-19T15:52:59.414Z,67.66
2023-02-19T15:56:15.414Z,67.93
2023-02-19T15:59:29.893Z,68.12
2023-02-19T16:02:36.024Z,67.13
2023-02-19T16:05:40.577Z,67.20
2023-02-19T16:08:44.526Z,66.75
2023-02-19T16:11:54.033Z,67.64
2023-02-19T16:15:14.576Z,66.76
2023-02-19T16:18:17.856Z,66.37
2023-02-19T16:21:28.184Z,66.93
2023-02-19T16:24:37.405Z,67.40
2023-02-19T16:27:43.986Z,68.42
2023-02-19T16:30:47.363Z,67.61
2023-02-19T16:33:52.075Z,66.88
2023-02-19T16:36:55.031Z,68.30
2023-02-19T16:40:15.088Z,69.01
2023-02-19T16:43:37.944Z,70.90
2023-02-19T16:46:44.167Z,71.85
2023-02-19T16:49:46.862Z,72.89
2023-02-19T16:52:58.914Z,72.95
2023-02-19T16:56:01.682Z,73.45
2023-02-19T16:59:05.282Z,72.50
2023-02-19T17:02:15.963Z,73.43
2023-02-19T17:05:22.264Z,71.53
2023-02-19T17:08:38.250Z,72.62
2023-02-19T17:11:44.811Z,71.63
2023-02-19T17:14:47.995Z,70.68
2023-02-19T17:17:54.285Z,71.61
2023-02-19T17:21:21.341Z,70.69
2023-02-19T17:24:28.173Z,71.73
2023-02-19T17:27:33.025Z,69.49
2023-02-19T17:30:37.787Z,68.80
2023-02-19T17:33:53.671Z,68.36
2023-02-19T17:36:56.845Z,68.36
2023-02-19T17:39:59.708Z,67.90
2023-02-19T17:43:05.405Z,67.43
2023-02-19T17:46:09.988Z,66.20
2023-02-19T17:49:13.326Z,66.13
2023-02-19T17:52:21.790Z,67.01
2023-02-19T17:55:26.050Z,66.98
2023-02-19T17:58:31.103Z,65.11
2023-02-19T18:01:34.438Z,64.26
2023-02-19T18:04:40.145Z,64.54
2023-02-19T18:07:46.595Z,65.80
2023-02-19T18:10:51.537Z,65.10
2023-02-19T18:13:54.830Z,65.77
2023-02-19T18:16:57.426Z,66.59
2023-02-19T18:20:05.161Z,66.67
2023-02-19T18:23:09.735Z,66.78
2023-02-19T18:26:14.484Z,66.61
2023-02-19T18:29:18.686Z,65.95
2023-02-19T18:32:24.694Z,66.60
2023-02-19T18:35:28.074Z,67.00
2023-02-19T18:38:34.465Z,66.73
2023-02-19T18:41:37.839Z,67.51
2023-02-19T18:44:42.116Z,67.36
2023-02-19T18:47:53.603Z,67.33
2023-02-19T18:51:07.084Z,67.23
2023-02-19T18:54:13.266Z,67.43
2023-02-19T18:57:16.746Z,67.47
2023-02-19T19:00:25.872Z,67.16
2023-02-19T19:03:38.561Z,68.00
2023-02-19T19:06:41.500Z,68.52
2023-02-19T19:09:44.398Z,68.06
2023-02-19T19:12:47.342Z,68.25
2023-02-19T19:15:53.355Z,68.56
2023-02-19T19:18:57.632Z,69.19
2023-02-19T19:22:06.795Z,69.24
2023-02-19T19:25:15.700Z,69.33
2023-02-19T19:28:19.847Z,69.61
2023-02-19T19:31:23.163Z,70.40
2023-02-19T19:34:28.755Z,70.39
2023-02-19T19:37:32.562Z,70.74
2023-02-19T19:40:38.397Z,71.58
2023-02-19T19:43:40.949Z,72.30
2023-02-19T19:46:46.160Z,71.69
2023-02-19T19:49:48.523Z,71.36
2023-02-19T19:52:51.807Z,71.72
2023-02-19T19:55:55.003Z,71.52
2023-02-19T19:58:59.360Z,70.50
2023-02-19T20:02:05.448Z,70.62
2023-02-19T20:05:16.998Z,70.83
2023-02-19T20:08:19.763Z,70.95
2023-02-19T20:11:23.050Z,68.97
2023-02-19T20:14:26.737Z,68.50
2023-02-19T20:17:30.531Z,67.91
2023-02-19T20:20:33.571Z,67.38
2023-02-19T20:23:42.305Z,67.16
2023-02-19T20:26:45.650Z,67.54
2023-02-19T20:29:49.386Z,66.65
2023-02-19T20:32:52.035Z,67.55
2023-02-19T20:35:57.139Z,67.89
2023-02-19T20:39:00.052Z,68.67
2023-02-19T20:42:03.174Z,68.53
2023-02-19T20:45:06.446Z,68.42
2023-02-19T20:48:09.119Z,68.14
2023-02-19T20:51:12.036Z,68.57
2023-02-19T20:54:17.777Z,66.52
2023-02-19T20:57:20.213Z,66.63
2023-02-19T21:00:26.672Z,66.86
2023-02-19T21:03:30.579Z,66.21
2023-02-19T21:06:33.555Z,64.90
2023-02-19T21:09:36.844Z,64.67
2023-02-19T21:12:39.755Z,64.83
2023-02-19T21:15:42.521Z,65.36
2023-02-19T21:18:45.306Z,65.35
2023-02-19T21:21:48.003Z,66.41
2023-02-19T21:24:53.321Z,66.09
2023-02-19T21:27:56.257Z,67.49
2023-02-19T21:30:59.426Z,66.66
2023-02-19T21:34:04.984Z,66.70
2023-02-19T21:37:08.073Z,67.39
2023-02-19T21:40:12.790Z,66.95
2023-02-19T21:43:20.171Z,67.16
2023-02-19T21:46:26.886Z,67.18
2023-02-19T21:49:30.368Z,67.33
2023-02-19T21:52:33.453Z,66.24
2023-02-19T21:55:38.619Z,64.61
2023-02-19T21:58:46.800Z,64.00
2023-02-19T22:01:50.859Z,62.68
2023-02-19T22:04:56.474Z,60.74
2023-02-19T22:08:00.414Z,59.85
2023-02-19T22:11:07.069Z,58.70
2023-02-19T22:14:12.927Z,58.20
2023-02-19T22:17:16.124Z,57.85
2023-02-19T22:20:22.705Z,57.43
2023-02-19T22:23:26.070Z,57.29
2023-02-19T22:26:36.035Z,57.12
2023-02-19T22:30:06.992Z,55.37
2023-02-19T22:33:10.522Z,56.12
2023-02-19T22:36:19.874Z,56.48
2023-02-19T22:39:27.615Z,55.76
2023-02-19T22:42:30.801Z,56.43
2023-02-19T22:45:33.915Z,55.30
2023-02-19T22:48:36.607Z,55.81
2023-02-19T22:51:39.397Z,56.08
2023-02-19T22:54:41.982Z,55.01
2023-02-19T22:57:44.620Z,54.96
2023-02-19T23:00:49.765Z,55.64
2023-02-19T23:04:01.547Z,55.53
2023-02-19T23:07:06.519Z,54.26
2023-02-19T23:10:09.713Z,54.33
2023-02-19T23:13:12.390Z,53.69
2023-02-19T23:16:15.353Z,54.19
2023-02-19T23:19:18.243Z,54.22
2023-02-19T23:22:21.302Z,54.53
2023-02-19T23:25:27.979Z,54.06
2023-02-19T23:28:31.136Z,53.00
2023-02-19T23:31:34.096Z,54.00
2023-02-19T23:34:36.787Z,54.38
2023-02-19T23:37:40.037Z,53.24
2023-02-19T23:40:43.610Z,53.55
2023-02-19T23:43:46.070Z,53.01
2023-02-19T23:46:49.268Z,53.31
2023-02-19T23:49:52.356Z,52.91
2023-02-19T23:52:57.544Z,52.68
2023-02-19T23:56:00.226Z,53.93
2023-02-19T23:59:06.376Z,53.33
